createdAt,value
2023-01-01T00:02:01.157Z,100.00
2023-01-01T00:04:32.026Z,100.00
2023-01-01T00:07:00.465Z,100.00
2023-01-01T00:09:45.881Z,100.00
2023-01-01T00:12:14.310Z,100.00
2023-01-01T00:14:44.543Z,100.00
2023-01-01T00:17:12.963Z,100.00
2023-01-01T00:19:42.681Z,100.00
2023-01-01T00:22:44.073Z,100.00
2023-01-01T00:24:59.298Z,100.00
2023-01-01T00:27:27.616Z,100.00
2023-01-01T00:29:55.892Z,100.00
2023-01-01T00:32:24.534Z,100.00
2023-01-01T00:34:54.487Z,100.00
2023-01-01T00:37:22.844Z,100.00
2023-01-01T00:39:51.172Z,100.00
2023-01-01T00:42:19.453Z,100.00
2023-01-01T00:44:47.768Z,100.00
2023-01-01T00:47:16.092Z,100.00
2023-01-01T00:49:44.579Z,100.00
2023-01-01T00:52:14.330Z,100.00
2023-01-01T00:54:42.809Z,100.00
2023-01-01T00:57:11.090Z,100.00
2023-01-01T00:59:39.345Z,100.00
2023-01-01T01:02:07.804Z,100.00
2023-01-01T01:04:36.138Z,100.00
2023-01-01T01:07:04.574Z,100.00
2023-01-01T01:09:34.422Z,100.00
2023-01-01T01:12:18.785Z,100.00
2023-01-01T01:14:48.017Z,100.00
2023-01-01T01:17:16.278Z,100.00
2023-01-01T01:19:44.564Z,100.00
2023-01-01T01:22:12.917Z,100.00
2023-01-01T01:24:42.644Z,100.00
2023-01-01T01:27:11.365Z,100.00
2023-01-01T01:29:39.690Z,100.00
2023-01-01T01:32:08.010Z,100.00
2023-01-01T01:34:36.272Z,100.00
2023-01-01T01:37:04.931Z,100.00
2023-01-01T01:39:33.251Z,100.00
2023-01-01T01:42:03.886Z,100.00
2023-01-01T01:44:57.633Z,100.00
2023-01-01T01:47:30.836Z,100.00
2023-01-01T01:50:03.019Z,100.00
2023-01-01T01:52:31.896Z,100.00
2023-01-01T01:55:02.283Z,100.00
2023-01-01T01:57:32.588Z,100.00
2023-01-01T02:00:08.680Z,100.00
2023-01-01T02:02:43.909Z,100.00
2023-01-01T02:05:13.088Z,100.00
2023-01-01T02:07:41.487Z,100.00
2023-01-01T02:10:10.436Z,100.00
2023-01-01T02:12:40.230Z,100.00
2023-01-01T02:15:09.775Z,100.00
2023-01-01T02:17:42.136Z,100.00
2023-01-01T02:20:24.223Z,100.00
2023-01-01T02:23:24.085Z,100.00
2023-01-01T02:26:02.608Z,100.00
2023-01-01T02:28:50.186Z,100.00
2023-01-01T02:31:23.868Z,100.00
2023-01-01T02:33:54.618Z,100.00
2023-01-01T02:36:23.692Z,100.00
2023-01-01T02:38:54.471Z,100.00
2023-01-01T02:41:25.629Z,100.00
2023-01-01T02:48:53.179Z,100.00
2023-01-01T02:51:27.451Z,100.00
2023-01-01T02:54:02.998Z,100.00
2023-01-01T02:56:37.632Z,100.00
2023-01-01T02:59:34.150Z,100.00
2023-01-01T03:02:06.412Z,100.00
2023-01-01T03:04:45.040Z,100.00
2023-01-01T03:07:19.663Z,100.00
2023-01-01T03:09:56.455Z,100.00
2023-01-01T03:12:39.914Z,100.00
2023-01-01T03:15:16.706Z,100.00
2023-01-01T03:17:48.575Z,100.00
2023-01-01T03:20:19.795Z,100.00
2023-01-01T03:22:48.907Z,100.00
2023-01-01T03:25:21.908Z,100.00
2023-01-01T03:27:51.609Z,100.00
2023-01-01T03:30:22.440Z,100.00
2023-01-01T03:33:03.852Z,100.00
2023-01-01T03:35:38.557Z,100.00
2023-01-01T03:38:10.892Z,100.00
2023-01-01T03:40:40.306Z,100.00
2023-01-01T03:43:13.298Z,100.00
2023-01-01T03:45:44.726Z,100.00
2023-01-01T03:48:13.403Z,100.00
2023-01-01T03:50:51.718Z,100.00
2023-01-01T03:53:33.103Z,100.00
2023-01-01T03:56:07.977Z,100.00
2023-01-01T03:58:41.621Z,100.00
2023-01-01T04:01:19.581Z,100.00
2023-01-01T04:03:48.511Z,100.00
2023-01-01T04:06:17.029Z,100.00
2023-01-01T04:08:45.879Z,100.00
2023-01-01T04:11:40.906Z,100.00
2023-01-01T04:14:09.519Z,100.00
2023-01-01T04:16:40.067Z,100.00
2023-01-01T04:19:08.675Z,100.00
2023-01-01T04:21:37.056Z,100.00
2023-01-01T04:24:05.995Z,100.00
2023-01-01T04:26:34.372Z,100.00
2023-01-01T04:29:02.837Z,100.00
2023-01-01T04:31:31.357Z,100.00
2023-01-01T04:34:02.825Z,100.00
2023-01-01T04:36:32.015Z,100.00
2023-01-01T04:39:00.644Z,100.00
2023-01-01T04:41:31.753Z,100.00
2023-01-01T04:44:01.761Z,100.00
2023-01-01T04:46:30.515Z,100.00
2023-01-01T04:49:02.255Z,100.00
2023-01-01T04:51:31.563Z,100.00
2023-01-01T04:54:02.344Z,100.00
2023-01-01T04:56:30.784Z,100.00
2023-01-01T04:58:59.553Z,100.00
2023-01-01T05:01:29.955Z,100.00
2023-01-01T05:04:00.704Z,100.00
2023-01-01T05:06:30.339Z,100.00
2023-01-01T05:09:04.086Z,100.00
2023-01-01T05:11:34.139Z,100.00
2023-01-01T05:14:03.120Z,100.00
2023-01-01T05:16:32.921Z,100.00
2023-01-01T05:19:05.200Z,100.00
2023-01-01T05:21:35.107Z,100.00
2023-01-01T05:24:06.280Z,100.00
2023-01-01T05:26:37.128Z,100.00
2023-01-01T05:29:11.903Z,100.00
2023-01-01T05:31:45.786Z,100.00
2023-01-01T05:34:15.952Z,100.00
2023-01-01T05:36:47.510Z,100.00
2023-01-01T05:39:16.180Z,100.00
2023-01-01T05:41:45.379Z,100.00
2023-01-01T05:44:16.715Z,100.00
2023-01-01T05:46:45.340Z,100.00
2023-01-01T05:49:16.805Z,100.00
2023-01-01T05:51:48.519Z,100.00
2023-01-01T05:56:49.832Z,100.00
2023-01-01T05:59:19.861Z,100.00
2023-01-01T06:01:51.647Z,100.00
2023-01-01T06:04:24.829Z,100.00
2023-01-01T06:06:54.659Z,100.00
2023-01-01T06:09:23.143Z,100.00
2023-01-01T06:11:53.374Z,100.00
2023-01-01T06:14:21.919Z,100.00
2023-01-01T06:16:51.162Z,100.00
2023-01-01T06:19:19.944Z,100.00
2023-01-01T06:21:50.209Z,100.00
2023-01-01T06:24:20.031Z,100.00
2023-01-01T06:26:49.481Z,100.00
2023-01-01T06:29:17.842Z,100.00
2023-01-01T06:31:47.783Z,100.00
2023-01-01T06:34:16.357Z,100.00
2023-01-01T06:36:45.082Z,100.00
2023-01-01T06:39:15.113Z,100.00
2023-01-01T06:41:46.419Z,100.00
2023-01-01T06:44:17.562Z,100.00
2023-01-01T06:46:46.424Z,100.00
2023-01-01T06:49:18.054Z,100.00
2023-01-01T06:51:46.378Z,100.00
2023-01-01T06:54:16.424Z,100.00
2023-01-01T06:56:45.607Z,100.00
2023-01-01T06:59:14.158Z,100.00
2023-01-01T07:01:44.439Z,100.00
2023-01-01T07:04:15.515Z,100.00
2023-01-01T07:06:50.106Z,100.00
2023-01-01T07:09:20.525Z,100.00
2023-01-01T07:11:55.424Z,100.00
2023-01-01T07:14:24.189Z,100.00
2023-01-01T07:16:52.891Z,100.00
2023-01-01T07:19:22.309Z,100.00
2023-01-01T07:21:54.249Z,100.00
2023-01-01T07:24:24.529Z,100.00
2023-01-01T07:26:53.197Z,100.00
2023-01-01T07:29:21.861Z,100.00
2023-01-01T07:31:53.011Z,100.00
2023-01-01T07:34:23.050Z,100.00
2023-01-01T07:36:51.679Z,100.00
2023-01-01T07:39:20.165Z,100.00
2023-01-01T07:41:51.589Z,100.00
2023-01-01T07:44:20.033Z,100.00
2023-01-01T07:46:49.127Z,100.00
2023-01-01T07:49:17.474Z,100.00
2023-01-01T07:51:47.243Z,100.00
2023-01-01T07:54:15.814Z,100.00
2023-01-01T07:56:44.423Z,100.00
2023-01-01T07:59:18.520Z,100.00
2023-01-01T08:01:48.857Z,100.00
2023-01-01T08:04:17.841Z,100.00
2023-01-01T08:06:46.828Z,100.00
2023-01-01T08:09:15.501Z,100.00
2023-01-01T08:11:43.972Z,100.00
2023-01-01T08:14:13.899Z,100.00
2023-01-01T08:16:42.397Z,100.00
2023-01-01T08:19:10.799Z,100.00
2023-01-01T08:21:39.298Z,100.00
2023-01-01T08:24:08.335Z,100.00
2023-01-01T08:26:37.968Z,100.00
2023-01-01T08:29:07.777Z,100.00
2023-01-01T08:31:37.761Z,100.00
2023-01-01T08:34:06.537Z,100.00
2023-01-01T08:36:35.276Z,100.00
2023-01-01T08:39:03.688Z,100.00
2023-01-01T08:41:32.100Z,100.00
2023-01-01T08:44:00.509Z,100.00
2023-01-01T08:46:28.917Z,100.00
2023-01-01T08:48:59.221Z,100.00
2023-01-01T08:51:27.845Z,100.00
2023-01-01T08:53:56.293Z,100.00
2023-01-01T08:56:24.713Z,100.00
2023-01-01T08:58:55.138Z,100.00
2023-01-01T09:01:28.144Z,100.00
2023-01-01T09:03:58.873Z,100.00
2023-01-01T09:06:29.033Z,100.00
2023-01-01T09:08:58.213Z,100.00
2023-01-01T09:11:28.915Z,100.00
2023-01-01T09:13:57.199Z,100.00
2023-01-01T09:16:25.813Z,100.00
2023-01-01T09:18:54.062Z,100.00
2023-01-01T09:21:23.776Z,100.00
2023-01-01T09:23:53.542Z,100.00
2023-01-01T09:26:22.179Z,100.00
2023-01-01T09:28:51.704Z,100.00
2023-01-01T09:31:19.996Z,100.00
2023-01-01T09:33:49.162Z,100.00
2023-01-01T09:36:30.659Z,100.00
2023-01-01T09:39:00.176Z,100.00
2023-01-01T09:41:40.379Z,100.00
2023-01-01T09:44:16.843Z,100.00
2023-01-01T09:46:46.083Z,100.00
2023-01-01T09:49:19.472Z,100.00
2023-01-01T09:51:58.193Z,100.00
2023-01-01T09:54:29.563Z,100.00
2023-01-01T09:56:59.940Z,100.00
2023-01-01T09:59:29.641Z,100.00
2023-01-01T10:02:02.448Z,100.00
2023-01-01T10:04:45.669Z,100.00
2023-01-01T10:07:21.295Z,100.00
2023-01-01T10:09:55.859Z,100.00
2023-01-01T10:12:30.150Z,100.00
2023-01-01T10:15:03.701Z,100.00
2023-01-01T10:17:34.715Z,100.00
2023-01-01T10:20:06.516Z,100.00
2023-01-01T10:22:38.068Z,100.00
2023-01-01T10:25:16.051Z,100.00
2023-01-01T10:27:47.515Z,100.00
2023-01-01T10:30:19.076Z,100.00
2023-01-01T10:32:49.029Z,100.00
2023-01-01T10:35:22.908Z,100.00
2023-01-01T10:37:55.047Z,100.00
2023-01-01T10:40:26.632Z,100.00
2023-01-01T10:42:56.598Z,100.00
2023-01-01T10:45:31.545Z,89.90
2023-01-01T10:48:15.678Z,87.32
2023-01-01T10:50:47.119Z,86.47
2023-01-01T10:53:28.927Z,84.26
2023-01-01T10:56:03.259Z,82.52
2023-01-01T10:58:45.679Z,75.96
2023-01-01T11:01:23.067Z,73.46
2023-01-01T11:04:00.001Z,71.75
2023-01-01T11:06:29.848Z,71.13
2023-01-01T11:09:04.127Z,73.00
2023-01-01T11:11:42.729Z,67.99
2023-01-01T11:14:22.286Z,68.40
2023-01-01T11:16:51.107Z,68.05
2023-01-01T11:19:27.440Z,65.81
2023-01-01T11:21:56.277Z,66.88
2023-01-01T11:24:27.382Z,68.03
2023-01-01T11:27:15.037Z,67.70
2023-01-01T11:29:43.731Z,67.63
2023-01-01T11:32:18.356Z,64.69
2023-01-01T11:34:48.373Z,65.95
2023-01-01T11:37:24.384Z,63.50
2023-01-01T11:39:55.597Z,60.77
2023-01-01T11:42:27.086Z,60.10
2023-01-01T11:44:56.935Z,60.88
2023-01-01T11:47:28.461Z,59.73
2023-01-01T11:49:59.238Z,57.72
2023-01-01T11:52:37.082Z,58.99
2023-01-01T11:55:14.976Z,58.89
2023-01-01T11:57:46.320Z,57.74
2023-01-01T12:00:16.701Z,57.78
2023-01-01T12:02:50.055Z,56.20
2023-01-01T12:05:21.852Z,55.39
2023-01-01T12:07:50.532Z,54.57
2023-01-01T12:10:23.674Z,54.22
2023-01-01T12:12:54.614Z,54.80
2023-01-01T12:15:27.630Z,52.50
2023-01-01T12:18:02.939Z,53.65
2023-01-01T12:20:33.838Z,54.25
2023-01-01T12:23:03.475Z,53.73
2023-01-01T12:25:39.073Z,52.88
2023-01-01T12:28:18.964Z,52.39
2023-01-01T12:30:54.121Z,51.85
2023-01-01T12:33:41.994Z,51.58
2023-01-01T12:36:20.553Z,52.41
2023-01-01T12:39:18.542Z,53.67
2023-01-01T12:41:53.135Z,55.57
2023-01-01T12:44:27.433Z,57.02
2023-01-01T12:47:01.422Z,58.92
2023-01-01T12:49:48.507Z,61.45
2023-01-01T12:52:26.103Z,64.69
2023-01-01T12:55:40.102Z,71.04
2023-01-01T12:58:14.369Z,78.29
2023-01-01T13:00:45.347Z,82.54
2023-01-01T13:03:20.124Z,85.82
2023-01-01T13:05:52.095Z,89.26
2023-01-01T13:08:20.345Z,95.92
2023-01-01T13:10:50.728Z,100.00
2023-01-01T13:13:20.721Z,100.00
2023-01-01T13:15:51.852Z,100.00
2023-01-01T13:18:26.353Z,100.00
2023-01-01T13:21:04.462Z,100.00
2023-01-01T13:23:53.174Z,100.00
2023-01-01T13:26:37.478Z,100.00
2023-01-01T13:29:35.335Z,100.00
2023-01-01T13:32:06.666Z,100.00
2023-01-01T13:35:02.797Z,100.00
2023-01-01T13:37:55.325Z,100.00
2023-01-01T13:40:42.276Z,100.00
2023-01-01T13:43:27.900Z,100.00
2023-01-01T13:46:15.282Z,100.00
2023-01-01T13:49:07.934Z,100.00
2023-01-01T13:55:30.031Z,100.00
2023-01-01T13:58:14.957Z,100.00
2023-01-01T14:00:55.193Z,100.00
2023-01-01T14:03:26.156Z,100.00
2023-01-01T14:05:57.834Z,100.00
2023-01-01T14:08:31.001Z,100.00
2023-01-01T14:11:02.234Z,100.00
2023-01-01T14:13:32.592Z,100.00
2023-01-01T14:16:03.694Z,100.00
2023-01-01T14:18:37.836Z,100.00
2023-01-01T14:21:10.013Z,100.00
2023-01-01T14:23:41.198Z,100.00
2023-01-01T14:26:12.546Z,100.00
2023-01-01T14:28:41.268Z,100.00
2023-01-01T14:31:12.926Z,100.00
2023-01-01T14:33:43.007Z,100.00
2023-01-01T14:36:18.619Z,100.00
2023-01-01T14:38:48.405Z,100.00
2023-01-01T14:41:21.240Z,100.00
2023-01-01T14:43:51.526Z,100.00
2023-01-01T14:46:22.157Z,100.00
2023-01-01T14:48:54.003Z,100.00
2023-01-01T14:51:24.966Z,100.00
2023-01-01T14:53:54.328Z,100.00
2023-01-01T14:56:24.747Z,100.00
2023-01-01T14:58:53.427Z,100.00
2023-01-01T15:01:25.069Z,100.00
2023-01-01T15:04:00.005Z,100.00
2023-01-01T15:06:29.396Z,100.00
2023-01-01T15:08:58.086Z,100.00
2023-01-01T15:11:29.348Z,100.00
2023-01-01T15:14:01.222Z,100.00
2023-01-01T15:16:36.321Z,100.00
2023-01-01T15:19:20.311Z,100.00
2023-01-01T15:21:48.691Z,100.00
2023-01-01T15:24:22.292Z,100.00
2023-01-01T15:26:52.794Z,100.00
2023-01-01T15:29:27.885Z,100.00
2023-01-01T15:31:58.652Z,100.00
2023-01-01T15:34:31.482Z,100.00
2023-01-01T15:37:09.466Z,100.00
2023-01-01T15:39:50.053Z,100.00
2023-01-01T15:42:33.109Z,100.00
2023-01-01T15:45:21.786Z,100.00
2023-01-01T15:47:50.943Z,100.00
2023-01-01T15:50:25.681Z,100.00
2023-01-01T15:52:59.307Z,100.00
2023-01-01T15:55:30.802Z,100.00
2023-01-01T15:58:00.497Z,100.00
2023-01-01T16:00:33.320Z,100.00
2023-01-01T16:03:03.712Z,100.00
2023-01-01T16:05:33.816Z,100.00
2023-01-01T16:08:03.412Z,100.00
2023-01-01T16:10:33.214Z,100.00
2023-01-01T16:13:01.599Z,100.00
2023-01-01T16:15:30.050Z,100.00
2023-01-01T16:17:58.405Z,100.00
2023-01-01T16:20:27.172Z,100.00
2023-01-01T16:22:57.012Z,100.00
2023-01-01T16:25:26.294Z,100.00
2023-01-01T16:27:54.773Z,100.00
2023-01-01T16:30:27.112Z,100.00
2023-01-01T16:32:55.702Z,100.00
2023-01-01T16:35:24.421Z,100.00
2023-01-01T16:37:52.795Z,100.00
2023-01-01T16:40:22.933Z,100.00
2023-01-01T16:42:51.314Z,100.00
2023-01-01T16:45:20.024Z,100.00
2023-01-01T16:47:48.783Z,100.00
2023-01-01T16:50:17.317Z,100.00
2023-01-01T16:52:45.777Z,100.00
2023-01-01T16:55:14.641Z,100.00
2023-01-01T16:57:45.231Z,100.00
2023-01-01T17:00:15.823Z,100.00
2023-01-01T17:02:44.904Z,100.00
2023-01-01T17:05:20.040Z,100.00
2023-01-01T17:07:48.711Z,100.00
2023-01-01T17:10:17.755Z,100.00
2023-01-01T17:12:47.711Z,100.00
2023-01-01T17:15:16.666Z,100.00
2023-01-01T17:17:45.082Z,100.00
2023-01-01T17:20:13.529Z,100.00
2023-01-01T17:22:44.534Z,100.00
2023-01-01T17:25:13.587Z,100.00
2023-01-01T17:27:42.669Z,100.00
2023-01-01T17:30:18.345Z,100.00
2023-01-01T17:32:47.217Z,100.00
2023-01-01T17:35:16.146Z,100.00
2023-01-01T17:37:44.885Z,100.00
2023-01-01T17:40:14.303Z,100.00
2023-01-01T17:42:43.067Z,100.00
2023-01-01T17:45:13.279Z,100.00
2023-01-01T17:47:41.990Z,100.00
2023-01-01T17:50:11.314Z,100.00
2023-01-01T17:52:40.405Z,100.00
2023-01-01T17:55:09.943Z,100.00
2023-01-01T17:57:41.468Z,100.00
2023-01-01T18:00:16.902Z,100.00
2023-01-01T18:02:47.060Z,100.00
2023-01-01T18:05:16.214Z,100.00
2023-01-01T18:07:45.876Z,100.00
2023-01-01T18:10:14.794Z,100.00
2023-01-01T18:12:43.744Z,100.00
2023-01-01T18:15:13.935Z,100.00
2023-01-01T18:17:43.573Z,100.00
2023-01-01T18:20:12.955Z,100.00
2023-01-01T18:22:43.372Z,100.00
2023-01-01T18:25:12.553Z,100.00
2023-01-01T18:27:41.219Z,100.00
2023-01-01T18:30:10.963Z,100.00
2023-01-01T18:32:41.619Z,100.00
2023-01-01T18:35:11.300Z,100.00
2023-01-01T18:37:40.629Z,100.00
2023-01-01T18:40:14.095Z,100.00
2023-01-01T18:42:48.788Z,100.00
2023-01-01T18:45:20.561Z,100.00
2023-01-01T18:47:51.487Z,100.00
2023-01-01T18:50:25.985Z,100.00
2023-01-01T18:52:57.216Z,100.00
2023-01-01T18:55:28.187Z,100.00
2023-01-01T18:58:01.239Z,100.00
2023-01-01T19:00:31.396Z,100.00
2023-01-01T19:03:03.311Z,100.00
2023-01-01T19:05:33.884Z,100.00
2023-01-01T19:08:11.099Z,100.00
2023-01-01T19:10:41.043Z,100.00
2023-01-01T19:13:21.988Z,100.00
2023-01-01T19:15:55.661Z,100.00
2023-01-01T19:18:27.864Z,100.00
2023-01-01T19:21:01.749Z,100.00
2023-01-01T19:23:33.042Z,100.00
2023-01-01T19:26:08.251Z,100.00
2023-01-01T19:28:38.491Z,100.00
2023-01-01T19:31:08.418Z,100.00
2023-01-01T19:33:42.800Z,100.00
2023-01-01T19:36:14.718Z,100.00
2023-01-01T19:38:44.223Z,100.00
2023-01-01T19:41:13.472Z,100.00
2023-01-01T19:43:45.615Z,100.00
2023-01-01T19:46:16.128Z,100.00
2023-01-01T19:48:47.102Z,100.00
2023-01-01T19:51:16.095Z,100.00
2023-01-01T19:53:45.695Z,100.00
2023-01-01T19:56:16.695Z,100.00
2023-01-01T19:58:47.083Z,100.00
2023-01-01T20:01:21.120Z,100.00
2023-01-01T20:03:56.957Z,100.00
2023-01-01T20:06:28.850Z,100.00
2023-01-01T20:09:03.758Z,100.00
2023-01-01T20:11:33.879Z,100.00
2023-01-01T20:14:04.874Z,100.00
2023-01-01T20:16:35.343Z,100.00
2023-01-01T20:19:09.270Z,100.00
2023-01-01T20:21:56.792Z,100.00
2023-01-01T20:24:30.622Z,100.00
2023-01-01T20:27:02.026Z,100.00
2023-01-01T20:29:30.680Z,100.00
2023-01-01T20:32:00.978Z,100.00
2023-01-01T20:34:32.706Z,100.00
2023-01-01T20:37:22.964Z,100.00
2023-01-01T20:39:52.479Z,100.00
2023-01-01T20:42:23.241Z,100.00
2023-01-01T20:44:53.461Z,100.00
2023-01-01T20:47:30.102Z,100.00
2023-01-01T20:50:02.091Z,100.00
2023-01-01T20:52:32.203Z,100.00
2023-01-01T20:55:02.645Z,100.00
2023-01-01T20:57:32.609Z,100.00
2023-01-01T21:00:02.387Z,100.00
2023-01-01T21:02:34.415Z,100.00
2023-01-01T21:05:06.776Z,100.00
2023-01-01T21:07:36.071Z,100.00
2023-01-01T21:10:06.394Z,100.00
2023-01-01T21:12:38.407Z,100.00
2023-01-01T21:15:15.933Z,100.00
2023-01-01T21:17:46.995Z,100.00
2023-01-01T21:20:18.693Z,100.00
2023-01-01T21:22:48.351Z,100.00
2023-01-01T21:25:50.535Z,100.00
2023-01-01T21:28:13.778Z,100.00
2023-01-01T21:30:48.890Z,100.00
2023-01-01T21:33:23.892Z,100.00
2023-01-01T21:35:53.713Z,100.00
2023-01-01T21:38:25.068Z,100.00
2023-01-01T21:40:54.945Z,100.00
2023-01-01T21:43:34.286Z,100.00
2023-01-01T21:46:33.846Z,100.00
2023-01-01T21:49:04.775Z,100.00
2023-01-01T21:51:37.640Z,100.00
2023-01-01T21:54:32.225Z,100.00
2023-01-01T21:57:01.684Z,100.00
2023-01-01T21:59:35.575Z,100.00
2023-01-01T22:02:36.601Z,100.00
2023-01-01T22:05:30.333Z,100.00
2023-01-01T22:08:19.036Z,100.00
2023-01-01T22:10:47.457Z,100.00
2023-01-01T22:13:18.561Z,100.00
2023-01-01T22:15:47.399Z,100.00
2023-01-01T22:18:20.564Z,100.00
2023-01-01T22:20:49.664Z,100.00
2023-01-01T22:23:25.671Z,100.00
2023-01-01T22:25:54.056Z,100.00
2023-01-01T22:28:25.511Z,100.00
2023-01-01T22:30:55.822Z,100.00
2023-01-01T22:33:28.160Z,100.00
2023-01-01T22:35:57.441Z,100.00
2023-01-01T22:38:32.908Z,100.00
2023-01-01T22:41:01.612Z,100.00
2023-01-01T22:43:34.137Z,100.00
2023-01-01T22:46:08.086Z,100.00
2023-01-01T22:48:38.577Z,100.00
2023-01-01T22:51:08.176Z,100.00
2023-01-01T22:53:37.939Z,100.00
2023-01-01T22:56:07.794Z,100.00
2023-01-01T22:58:36.151Z,100.00
2023-01-01T23:01:04.524Z,100.00
2023-01-01T23:03:33.172Z,100.00
2023-01-01T23:06:05.114Z,100.00
2023-01-01T23:08:33.606Z,100.00
2023-01-01T23:11:03.852Z,100.00
2023-01-01T23:13:48.490Z,100.00
2023-01-01T23:16:16.754Z,100.00
2023-01-01T23:18:45.146Z,100.00
2023-01-01T23:21:18.938Z,100.00
2023-01-01T23:23:50.961Z,100.00
2023-01-01T23:26:21.158Z,100.00
2023-01-01T23:28:49.655Z,100.00
2023-01-01T23:31:24.506Z,100.00
2023-01-01T23:33:57.649Z,100.00
2023-01-01T23:36:26.607Z,100.00
2023-01-01T23:38:55.090Z,100.00
2023-01-01T23:41:25.426Z,100.00
2023-01-01T23:43:53.996Z,100.00
2023-01-01T23:46:23.102Z,100.00
2023-01-01T23:48:51.645Z,100.00
2023-01-01T23:51:20.226Z,100.00
2023-01-01T23:53:48.683Z,100.00
2023-01-01T23:56:17.232Z,100.00
2023-01-01T23:58:46.948Z,100.00
